sensor_id;sensor_type;location;lat;lon;timestamp;P1;durP1;ratioP1;P2;durP2;ratioP2
12802;SDS011;6465;42.700;23.278;2023-10-13T00:02:10;39.83;;;23.73;;
12802;SDS011;6465;42.700;23.278;2023-10-13T00:04:39;59.77;;;34.63;;
12802;SDS011;6465;42.700;23.278;2023-10-13T00:07:07;59.13;;;35.13;;
12802;SDS011;6465;42.700;23.278;2023-10-13T00:09:34;64.57;;;35.07;;
12802;SDS011;6465;42.700;23.278;2023-10-13T00:12:02;61.57;;;34.77;;
12802;SDS011;6465;42.700;23.278;2023-10-13T00:14:33;63.50;;;38.97;;
12802;SDS011;6465;42.700;23.278;2023-10-13T00:17:02;93.50;;;49.07;;
12802;SDS011;6465;42.700;23.278;2023-10-13T00:19:30;81.23;;;46.10;;
12802;SDS011;6465;42.700;23.278;2023-10-13T00:22:04;87.00;;;49.90;;
12802;SDS011;6465;42.700;23.278;2023-10-13T00:24:39;90.20;;;49.27;;
12802;SDS011;6465;42.700;23.278;2023-10-13T00:27:10;93.87;;;52.93;;
12802;SDS011;6465;42.700;23.278;2023-10-13T00:29:53;137.73;;;75.90;;
12802;SDS011;6465;42.700;23.278;2023-10-13T00:32:42;109.47;;;60.00;;
12802;SDS011;6465;42.700;23.278;2023-10-13T00:35:10;81.83;;;47.93;;
12802;SDS011;6465;42.700;23.278;2023-10-13T00:37:38;52.73;;;33.70;;
12802;SDS011;6465;42.700;23.278;2023-10-13T00:40:09;95.83;;;54.13;;
12802;SDS011;6465;42.700;23.278;2023-10-13T00:42:51;70.63;;;45.43;;
12802;SDS011;6465;42.700;23.278;2023-10-13T00:45:19;58.70;;;38.10;;
12802;SDS011;6465;42.700;23.278;2023-10-13T00:47:46;53.30;;;34.30;;
12802;SDS011;6465;42.700;23.278;2023-10-13T00:50:22;50.93;;;32.47;;
12802;SDS011;6465;42.700;23.278;2023-10-13T00:52:49;47.70;;;33.90;;
12802;SDS011;6465;42.700;23.278;2023-10-13T00:55:17;42.03;;;30.10;;
12802;SDS011;6465;42.700;23.278;2023-10-13T00:57:49;37.23;;;25.73;;
12802;SDS011;6465;42.700;23.278;2023-10-13T01:00:20;29.87;;;21.63;;
12802;SDS011;6465;42.700;23.278;2023-10-13T01:02:51;25.60;;;19.67;;
12802;SDS011;6465;42.700;23.278;2023-10-13T01:05:21;31.77;;;19.90;;
12802;SDS011;6465;42.700;23.278;2023-10-13T01:07:48;49.10;;;30.40;;
12802;SDS011;6465;42.700;23.278;2023-10-13T01:10:18;57.60;;;36.13;;
12802;SDS011;6465;42.700;23.278;2023-10-13T01:12:45;58.07;;;36.03;;
12802;SDS011;6465;42.700;23.278;2023-10-13T01:15:12;43.30;;;29.87;;
12802;SDS011;6465;42.700;23.278;2023-10-13T01:17:43;36.87;;;24.57;;
12802;SDS011;6465;42.700;23.278;2023-10-13T01:20:12;32.33;;;23.10;;
12802;SDS011;6465;42.700;23.278;2023-10-13T01:22:46;30.53;;;22.43;;
12802;SDS011;6465;42.700;23.278;2023-10-13T01:25:22;34.77;;;23.50;;
12802;SDS011;6465;42.700;23.278;2023-10-13T01:27:51;27.73;;;20.30;;
12802;SDS011;6465;42.700;23.278;2023-10-13T01:30:18;24.10;;;16.60;;
12802;SDS011;6465;42.700;23.278;2023-10-13T01:32:48;25.73;;;19.13;;
12802;SDS011;6465;42.700;23.278;2023-10-13T01:35:16;24.57;;;19.17;;
12802;SDS011;6465;42.700;23.278;2023-10-13T01:37:44;30.87;;;20.60;;
12802;SDS011;6465;42.700;23.278;2023-10-13T01:40:11;27.80;;;17.63;;
12802;SDS011;6465;42.700;23.278;2023-10-13T01:42:39;38.47;;;24.00;;
12802;SDS011;6465;42.700;23.278;2023-10-13T01:45:06;29.87;;;19.97;;
12802;SDS011;6465;42.700;23.278;2023-10-13T01:47:32;31.90;;;22.93;;
12802;SDS011;6465;42.700;23.278;2023-10-13T01:49:59;45.47;;;26.00;;
12802;SDS011;6465;42.700;23.278;2023-10-13T01:52:32;44.13;;;26.87;;
12802;SDS011;6465;42.700;23.278;2023-10-13T01:54:58;39.33;;;24.20;;
12802;SDS011;6465;42.700;23.278;2023-10-13T01:57:26;43.50;;;23.97;;
12802;SDS011;6465;42.700;23.278;2023-10-13T01:59:54;42.40;;;24.97;;
12802;SDS011;6465;42.700;23.278;2023-10-13T02:02:20;44.80;;;25.47;;
12802;SDS011;6465;42.700;23.278;2023-10-13T02:04:54;42.60;;;23.50;;
12802;SDS011;6465;42.700;23.278;2023-10-13T02:07:22;34.10;;;21.43;;
12802;SDS011;6465;42.700;23.278;2023-10-13T02:09:54;30.43;;;18.97;;
12802;SDS011;6465;42.700;23.278;2023-10-13T02:12:20;27.43;;;17.37;;
12802;SDS011;6465;42.700;23.278;2023-10-13T02:14:53;41.13;;;22.87;;
12802;SDS011;6465;42.700;23.278;2023-10-13T02:17:20;40.40;;;23.83;;
12802;SDS011;6465;42.700;23.278;2023-10-13T02:19:48;46.87;;;25.10;;
12802;SDS011;6465;42.700;23.278;2023-10-13T02:22:14;47.13;;;26.33;;
12802;SDS011;6465;42.700;23.278;2023-10-13T02:24:52;38.30;;;21.67;;
12802;SDS011;6465;42.700;23.278;2023-10-13T02:27:18;36.13;;;21.93;;
12802;SDS011;6465;42.700;23.278;2023-10-13T02:29:49;38.43;;;20.93;;
12802;SDS011;6465;42.700;23.278;2023-10-13T02:32:16;37.33;;;21.63;;
12802;SDS011;6465;42.700;23.278;2023-10-13T02:34:44;39.37;;;20.73;;
12802;SDS011;6465;42.700;23.278;2023-10-13T02:37:10;41.77;;;22.10;;
12802;SDS011;6465;42.700;23.278;2023-10-13T02:39:38;44.67;;;22.53;;
12802;SDS011;6465;42.700;23.278;2023-10-13T02:42:06;40.67;;;22.30;;
12802;SDS011;6465;42.700;23.278;2023-10-13T02:44:33;36.83;;;19.53;;
12802;SDS011;6465;42.700;23.278;2023-10-13T02:47:01;28.27;;;18.27;;
12802;SDS011;6465;42.700;23.278;2023-10-13T02:49:32;35.23;;;19.77;;
12802;SDS011;6465;42.700;23.278;2023-10-13T02:52:02;28.80;;;17.27;;
12802;SDS011;6465;42.700;23.278;2023-10-13T02:54:32;28.33;;;16.43;;
12802;SDS011;6465;42.700;23.278;2023-10-13T02:57:05;22.80;;;15.57;;
12802;SDS011;6465;42.700;23.278;2023-10-13T02:59:31;27.97;;;17.23;;
12802;SDS011;6465;42.700;23.278;2023-10-13T03:02:05;28.40;;;19.23;;
12802;SDS011;6465;42.700;23.278;2023-10-13T03:04:44;34.73;;;19.77;;
12802;SDS011;6465;42.700;23.278;2023-10-13T03:07:11;37.87;;;22.23;;
12802;SDS011;6465;42.700;23.278;2023-10-13T03:09:40;42.10;;;22.87;;
12802;SDS011;6465;42.700;23.278;2023-10-13T03:12:15;45.40;;;28.43;;
12802;SDS011;6465;42.700;23.278;2023-10-13T03:14:42;42.77;;;26.53;;
12802;SDS011;6465;42.700;23.278;2023-10-13T03:17:13;29.93;;;20.53;;
12802;SDS011;6465;42.700;23.278;2023-10-13T03:19:42;35.43;;;20.60;;
12802;SDS011;6465;42.700;23.278;2023-10-13T03:22:15;26.90;;;20.00;;
12802;SDS011;6465;42.700;23.278;2023-10-13T03:24:42;27.33;;;16.80;;
12802;SDS011;6465;42.700;23.278;2023-10-13T03:27:11;27.23;;;18.20;;
12802;SDS011;6465;42.700;23.278;2023-10-13T03:29:41;34.70;;;20.80;;
12802;SDS011;6465;42.700;23.278;2023-10-13T03:32:09;42.87;;;24.47;;
12802;SDS011;6465;42.700;23.278;2023-10-13T03:34:40;42.60;;;24.67;;
12802;SDS011;6465;42.700;23.278;2023-10-13T03:37:17;49.90;;;30.33;;
12802;SDS011;6465;42.700;23.278;2023-10-13T03:40:00;41.90;;;23.60;;
12802;SDS011;6465;42.700;23.278;2023-10-13T03:42:31;39.90;;;22.37;;
12802;SDS011;6465;42.700;23.278;2023-10-13T03:44:58;35.23;;;21.20;;
12802;SDS011;6465;42.700;23.278;2023-10-13T03:47:25;35.33;;;22.83;;
12802;SDS011;6465;42.700;23.278;2023-10-13T03:49:57;37.27;;;22.87;;
12802;SDS011;6465;42.700;23.278;2023-10-13T03:52:39;68.07;;;43.40;;
12802;SDS011;6465;42.700;23.278;2023-10-13T03:55:06;57.23;;;44.53;;
12802;SDS011;6465;42.700;23.278;2023-10-13T03:57:41;57.97;;;40.77;;
12802;SDS011;6465;42.700;23.278;2023-10-13T04:00:08;48.57;;;38.37;;
12802;SDS011;6465;42.700;23.278;2023-10-13T04:02:45;41.70;;;29.13;;
12802;SDS011;6465;42.700;23.278;2023-10-13T04:05:17;41.17;;;33.50;;
12802;SDS011;6465;42.700;23.278;2023-10-13T04:08:03;55.57;;;35.30;;
12802;SDS011;6465;42.700;23.278;2023-10-13T04:10:47;59.23;;;38.70;;
12802;SDS011;6465;42.700;23.278;2023-10-13T04:13:40;54.30;;;32.23;;
12802;SDS011;6465;42.700;23.278;2023-10-13T04:16:30;56.97;;;30.60;;
12802;SDS011;6465;42.700;23.278;2023-10-13T04:19:12;40.10;;;24.20;;
12802;SDS011;6465;42.700;23.278;2023-10-13T04:21:48;30.00;;;18.33;;
12802;SDS011;6465;42.700;23.278;2023-10-13T04:24:24;44.10;;;23.33;;
12802;SDS011;6465;42.700;23.278;2023-10-13T04:27:06;36.30;;;20.20;;
12802;SDS011;6465;42.700;23.278;2023-10-13T04:29:54;30.53;;;20.53;;
12802;SDS011;6465;42.700;23.278;2023-10-13T04:32:35;24.57;;;14.97;;
12802;SDS011;6465;42.700;23.278;2023-10-13T04:35:07;43.20;;;24.60;;
12802;SDS011;6465;42.700;23.278;2023-10-13T04:37:43;46.77;;;28.10;;
12802;SDS011;6465;42.700;23.278;2023-10-13T04:40:21;63.93;;;39.13;;
12802;SDS011;6465;42.700;23.278;2023-10-13T04:42:50;81.30;;;47.63;;
12802;SDS011;6465;42.700;23.278;2023-10-13T04:45:19;61.60;;;39.63;;
12802;SDS011;6465;42.700;23.278;2023-10-13T04:48:04;49.53;;;30.60;;
12802;SDS011;6465;42.700;23.278;2023-10-13T04:50:58;22.47;;;16.10;;
12802;SDS011;6465;42.700;23.278;2023-10-13T04:53:46;38.83;;;21.50;;
12802;SDS011;6465;42.700;23.278;2023-10-13T04:56:36;49.43;;;32.53;;
12802;SDS011;6465;42.700;23.278;2023-10-13T04:59:21;34.43;;;26.07;;
12802;SDS011;6465;42.700;23.278;2023-10-13T05:02:10;43.50;;;30.13;;
12802;SDS011;6465;42.700;23.278;2023-10-13T05:04:54;59.37;;;32.20;;
12802;SDS011;6465;42.700;23.278;2023-10-13T05:07:47;76.50;;;45.30;;
12802;SDS011;6465;42.700;23.278;2023-10-13T05:10:34;93.40;;;53.53;;
12802;SDS011;6465;42.700;23.278;2023-10-13T05:13:16;112.43;;;74.77;;
12802;SDS011;6465;42.700;23.278;2023-10-13T05:16:01;84.83;;;59.57;;
12802;SDS011;6465;42.700;23.278;2023-10-13T05:18:45;56.47;;;45.23;;
12802;SDS011;6465;42.700;23.278;2023-10-13T05:21:30;62.17;;;49.90;;
12802;SDS011;6465;42.700;23.278;2023-10-13T05:24:14;136.33;;;111.17;;
12802;SDS011;6465;42.700;23.278;2023-10-13T05:26:59;123.93;;;98.00;;
12802;SDS011;6465;42.700;23.278;2023-10-13T05:29:45;100.77;;;82.53;;
12802;SDS011;6465;42.700;23.278;2023-10-13T05:32:30;70.73;;;50.83;;
12802;SDS011;6465;42.700;23.278;2023-10-13T05:35:14;95.67;;;66.93;;
12802;SDS011;6465;42.700;23.278;2023-10-13T05:38:00;94.27;;;69.40;;
12802;SDS011;6465;42.700;23.278;2023-10-13T05:40:51;73.90;;;55.07;;
12802;SDS011;6465;42.700;23.278;2023-10-13T05:43:35;36.80;;;26.00;;
12802;SDS011;6465;42.700;23.278;2023-10-13T05:46:20;46.60;;;33.77;;
12802;SDS011;6465;42.700;23.278;2023-10-13T05:49:14;63.27;;;40.67;;
12802;SDS011;6465;42.700;23.278;2023-10-13T05:52:05;61.10;;;40.97;;
12802;SDS011;6465;42.700;23.278;2023-10-13T05:55:05;36.27;;;27.80;;
12802;SDS011;6465;42.700;23.278;2023-10-13T05:57:49;22.90;;;17.77;;
12802;SDS011;6465;42.700;23.278;2023-10-13T06:00:37;25.20;;;16.30;;
12802;SDS011;6465;42.700;23.278;2023-10-13T06:03:24;24.90;;;16.67;;
12802;SDS011;6465;42.700;23.278;2023-10-13T06:06:09;20.33;;;15.30;;
12802;SDS011;6465;42.700;23.278;2023-10-13T06:08:53;14.27;;;11.97;;
12802;SDS011;6465;42.700;23.278;2023-10-13T06:11:37;14.07;;;10.87;;
12802;SDS011;6465;42.700;23.278;2023-10-13T06:14:22;19.23;;;12.73;;
12802;SDS011;6465;42.700;23.278;2023-10-13T06:17:06;13.33;;;10.23;;
12802;SDS011;6465;42.700;23.278;2023-10-13T06:19:52;15.97;;;11.03;;
12802;SDS011;6465;42.700;23.278;2023-10-13T06:22:36;23.00;;;12.00;;
12802;SDS011;6465;42.700;23.278;2023-10-13T06:25:20;14.80;;;10.50;;
12802;SDS011;6465;42.700;23.278;2023-10-13T06:28:04;22.17;;;11.67;;
12802;SDS011;6465;42.700;23.278;2023-10-13T06:30:56;16.50;;;10.63;;
12802;SDS011;6465;42.700;23.278;2023-10-13T06:33:26;16.50;;;11.00;;
12802;SDS011;6465;42.700;23.278;2023-10-13T06:35:57;14.13;;;11.27;;
12802;SDS011;6465;42.700;23.278;2023-10-13T06:38:24;13.87;;;10.10;;
12802;SDS011;6465;42.700;23.278;2023-10-13T06:40:56;16.47;;;12.00;;
12802;SDS011;6465;42.700;23.278;2023-10-13T06:43:23;14.47;;;11.43;;
12802;SDS011;6465;42.700;23.278;2023-10-13T06:45:50;13.27;;;10.87;;
12802;SDS011;6465;42.700;23.278;2023-10-13T06:48:23;17.77;;;12.57;;
12802;SDS011;6465;42.700;23.278;2023-10-13T06:50:52;17.63;;;11.83;;
12802;SDS011;6465;42.700;23.278;2023-10-13T06:53:22;13.83;;;12.43;;
12802;SDS011;6465;42.700;23.278;2023-10-13T06:55:50;18.23;;;13.47;;
12802;SDS011;6465;42.700;23.278;2023-10-13T06:58:18;15.90;;;12.50;;
12802;SDS011;6465;42.700;23.278;2023-10-13T07:00:49;16.70;;;12.30;;
12802;SDS011;6465;42.700;23.278;2023-10-13T07:03:21;14.30;;;12.33;;
12802;SDS011;6465;42.700;23.278;2023-10-13T07:05:48;17.73;;;12.53;;
12802;SDS011;6465;42.700;23.278;2023-10-13T07:08:16;15.20;;;12.90;;
12802;SDS011;6465;42.700;23.278;2023-10-13T07:10:49;15.80;;;13.53;;
12802;SDS011;6465;42.700;23.278;2023-10-13T07:13:27;22.40;;;14.30;;
12802;SDS011;6465;42.700;23.278;2023-10-13T07:15:54;21.33;;;14.73;;
12802;SDS011;6465;42.700;23.278;2023-10-13T07:18:30;21.13;;;14.43;;
12802;SDS011;6465;42.700;23.278;2023-10-13T07:21:03;17.90;;;14.27;;
12802;SDS011;6465;42.700;23.278;2023-10-13T07:23:35;25.03;;;15.63;;
12802;SDS011;6465;42.700;23.278;2023-10-13T07:26:03;20.67;;;14.93;;
12802;SDS011;6465;42.700;23.278;2023-10-13T07:28:33;21.65;;;14.00;;
12802;SDS011;6465;42.700;23.278;2023-10-13T07:31:01;21.20;;;14.40;;
12802;SDS011;6465;42.700;23.278;2023-10-13T07:33:41;23.30;;;15.17;;
12802;SDS011;6465;42.700;23.278;2023-10-13T07:36:09;21.65;;;14.25;;
12802;SDS011;6465;42.700;23.278;2023-10-13T07:38:43;22.33;;;14.63;;
12802;SDS011;6465;42.700;23.278;2023-10-13T07:41:15;20.17;;;15.07;;
12802;SDS011;6465;42.700;23.278;2023-10-13T07:43:43;25.33;;;14.30;;
12802;SDS011;6465;42.700;23.278;2023-10-13T07:46:11;19.63;;;14.23;;
12802;SDS011;6465;42.700;23.278;2023-10-13T07:48:38;24.37;;;14.70;;
12802;SDS011;6465;42.700;23.278;2023-10-13T07:51:10;20.58;;;14.20;;
12802;SDS011;6465;42.700;23.278;2023-10-13T07:53:41;18.27;;;14.95;;
12802;SDS011;6465;42.700;23.278;2023-10-13T07:56:08;23.17;;;14.83;;
12802;SDS011;6465;42.700;23.278;2023-10-13T07:58:38;23.33;;;16.23;;
12802;SDS011;6465;42.700;23.278;2023-10-13T08:01:17;22.13;;;14.93;;
12802;SDS011;6465;42.700;23.278;2023-10-13T08:03:45;20.80;;;14.37;;
12802;SDS011;6465;42.700;23.278;2023-10-13T08:06:11;17.02;;;14.30;;
12802;SDS011;6465;42.700;23.278;2023-10-13T08:08:47;20.65;;;15.30;;
12802;SDS011;6465;42.700;23.278;2023-10-13T08:11:18;18.67;;;15.00;;
12802;SDS011;6465;42.700;23.278;2023-10-13T08:13:57;21.02;;;15.68;;
12802;SDS011;6465;42.700;23.278;2023-10-13T08:16:36;22.42;;;16.20;;
12802;SDS011;6465;42.700;23.278;2023-10-13T08:19:14;17.42;;;14.85;;
12802;SDS011;6465;42.700;23.278;2023-10-13T08:21:42;25.38;;;14.93;;
12802;SDS011;6465;42.700;23.278;2023-10-13T08:24:15;20.88;;;14.40;;
12802;SDS011;6465;42.700;23.278;2023-10-13T08:26:50;20.88;;;14.48;;
12802;SDS011;6465;42.700;23.278;2023-10-13T08:29:35;20.95;;;14.25;;
12802;SDS011;6465;42.700;23.278;2023-10-13T08:32:19;20.58;;;14.15;;
12802;SDS011;6465;42.700;23.278;2023-10-13T08:35:01;18.77;;;13.70;;
12802;SDS011;6465;42.700;23.278;2023-10-13T08:37:48;19.90;;;13.02;;
12802;SDS011;6465;42.700;23.278;2023-10-13T08:40:38;19.88;;;13.20;;
12802;SDS011;6465;42.700;23.278;2023-10-13T08:43:31;17.90;;;13.18;;
12802;SDS011;6465;42.700;23.278;2023-10-13T08:46:11;21.42;;;13.38;;
12802;SDS011;6465;42.700;23.278;2023-10-13T08:48:55;21.15;;;13.23;;
12802;SDS011;6465;42.700;23.278;2023-10-13T08:51:35;15.35;;;12.73;;
12802;SDS011;6465;42.700;23.278;2023-10-13T08:54:14;23.77;;;13.30;;
12802;SDS011;6465;42.700;23.278;2023-10-13T08:56:59;18.58;;;12.77;;
12802;SDS011;6465;42.700;23.278;2023-10-13T08:59:45;18.45;;;13.10;;
12802;SDS011;6465;42.700;23.278;2023-10-13T09:02:20;15.50;;;12.35;;
12802;SDS011;6465;42.700;23.278;2023-10-13T09:05:09;20.23;;;12.93;;
12802;SDS011;6465;42.700;23.278;2023-10-13T09:07:55;26.45;;;19.58;;
12802;SDS011;6465;42.700;23.278;2023-10-13T09:10:33;36.20;;;29.35;;
12802;SDS011;6465;42.700;23.278;2023-10-13T09:12:59;66.00;;;59.33;;
12802;SDS011;6465;42.700;23.278;2023-10-13T09:15:36;17.13;;;12.43;;
12802;SDS011;6465;42.700;23.278;2023-10-13T09:18:26;16.85;;;12.30;;
12802;SDS011;6465;42.700;23.278;2023-10-13T09:21:07;17.83;;;10.95;;
12802;SDS011;6465;42.700;23.278;2023-10-13T09:23:55;15.98;;;10.70;;
12802;SDS011;6465;42.700;23.278;2023-10-13T09:26:42;15.68;;;11.30;;
12802;SDS011;6465;42.700;23.278;2023-10-13T09:29:16;15.18;;;10.77;;
12802;SDS011;6465;42.700;23.278;2023-10-13T09:31:44;12.90;;;10.23;;
12802;SDS011;6465;42.700;23.278;2023-10-13T09:34:23;16.80;;;10.30;;
12802;SDS011;6465;42.700;23.278;2023-10-13T09:36:55;17.63;;;10.23;;
12802;SDS011;6465;42.700;23.278;2023-10-13T09:39:24;12.80;;;8.25;;
12802;SDS011;6465;42.700;23.278;2023-10-13T09:42:00;10.27;;;7.80;;
12802;SDS011;6465;42.700;23.278;2023-10-13T09:44:28;12.15;;;8.15;;
12802;SDS011;6465;42.700;23.278;2023-10-13T09:46:57;13.85;;;7.35;;
12802;SDS011;6465;42.700;23.278;2023-10-13T09:49:35;22.70;;;8.85;;
12802;SDS011;6465;42.700;23.278;2023-10-13T09:52:15;11.55;;;8.40;;
12802;SDS011;6465;42.700;23.278;2023-10-13T09:54:58;14.63;;;8.20;;
12802;SDS011;6465;42.700;23.278;2023-10-13T09:57:34;10.30;;;7.07;;
12802;SDS011;6465;42.700;23.278;2023-10-13T10:00:09;11.68;;;8.00;;
12802;SDS011;6465;42.700;23.278;2023-10-13T10:02:56;9.00;;;7.53;;
12802;SDS011;6465;42.700;23.278;2023-10-13T10:05:32;22.60;;;20.17;;
12802;SDS011;6465;42.700;23.278;2023-10-13T10:08:00;28.48;;;25.35;;
12802;SDS011;6465;42.700;23.278;2023-10-13T10:10:32;12.43;;;7.88;;
12802;SDS011;6465;42.700;23.278;2023-10-13T10:13:13;15.05;;;6.50;;
12802;SDS011;6465;42.700;23.278;2023-10-13T10:15:48;10.15;;;6.15;;
12802;SDS011;6465;42.700;23.278;2023-10-13T10:18:20;11.30;;;7.07;;
12802;SDS011;6465;42.700;23.278;2023-10-13T10:20:49;11.63;;;6.25;;
12802;SDS011;6465;42.700;23.278;2023-10-13T10:23:23;8.15;;;6.10;;
12802;SDS011;6465;42.700;23.278;2023-10-13T10:25:52;12.77;;;6.57;;
12802;SDS011;6465;42.700;23.278;2023-10-13T10:28:35;11.38;;;7.05;;
12802;SDS011;6465;42.700;23.278;2023-10-13T10:31:04;11.50;;;6.85;;
12802;SDS011;6465;42.700;23.278;2023-10-13T10:33:34;11.48;;;7.10;;
12802;SDS011;6465;42.700;23.278;2023-10-13T10:36:03;9.55;;;6.20;;
12802;SDS011;6465;42.700;23.278;2023-10-13T10:38:31;11.43;;;6.18;;
12802;SDS011;6465;42.700;23.278;2023-10-13T10:41:04;11.95;;;6.03;;
12802;SDS011;6465;42.700;23.278;2023-10-13T10:43:41;7.38;;;5.82;;
12802;SDS011;6465;42.700;23.278;2023-10-13T10:46:12;7.15;;;5.10;;
12802;SDS011;6465;42.700;23.278;2023-10-13T10:48:39;8.23;;;5.38;;
12802;SDS011;6465;42.700;23.278;2023-10-13T10:51:10;7.55;;;4.95;;
12802;SDS011;6465;42.700;23.278;2023-10-13T10:53:46;7.47;;;4.60;;
12802;SDS011;6465;42.700;23.278;2023-10-13T10:56:15;10.30;;;6.45;;
12802;SDS011;6465;42.700;23.278;2023-10-13T10:58:50;8.50;;;5.60;;
12802;SDS011;6465;42.700;23.278;2023-10-13T11:01:21;8.10;;;6.13;;
12802;SDS011;6465;42.700;23.278;2023-10-13T11:03:55;66.60;;;60.20;;
12802;SDS011;6465;42.700;23.278;2023-10-13T11:06:26;30.70;;;27.10;;
12802;SDS011;6465;42.700;23.278;2023-10-13T11:09:02;6.75;;;4.32;;
12802;SDS011;6465;42.700;23.278;2023-10-13T11:11:43;6.25;;;4.68;;
12802;SDS011;6465;42.700;23.278;2023-10-13T11:14:19;8.90;;;5.82;;
12802;SDS011;6465;42.700;23.278;2023-10-13T11:16:48;10.18;;;5.22;;
12802;SDS011;6465;42.700;23.278;2023-10-13T11:19:20;9.73;;;4.88;;
12802;SDS011;6465;42.700;23.278;2023-10-13T11:21:55;6.03;;;4.53;;
12802;SDS011;6465;42.700;23.278;2023-10-13T11:24:22;5.90;;;5.30;;
12802;SDS011;6465;42.700;23.278;2023-10-13T11:26:49;6.60;;;5.70;;
12802;SDS011;6465;42.700;23.278;2023-10-13T11:29:17;9.88;;;6.78;;
12802;SDS011;6465;42.700;23.278;2023-10-13T11:31:46;6.70;;;5.03;;
12802;SDS011;6465;42.700;23.278;2023-10-13T11:34:19;8.82;;;6.00;;
12802;SDS011;6465;42.700;23.278;2023-10-13T11:36:46;7.35;;;4.00;;
12802;SDS011;6465;42.700;23.278;2023-10-13T11:39:14;7.25;;;5.05;;
12802;SDS011;6465;42.700;23.278;2023-10-13T11:41:48;3.78;;;3.10;;
12802;SDS011;6465;42.700;23.278;2023-10-13T11:44:19;6.32;;;3.33;;
12802;SDS011;6465;42.700;23.278;2023-10-13T11:46:58;11.02;;;5.75;;
12802;SDS011;6465;42.700;23.278;2023-10-13T11:49:58;5.88;;;3.60;;
12802;SDS011;6465;42.700;23.278;2023-10-13T11:52:24;6.75;;;4.85;;
12802;SDS011;6465;42.700;23.278;2023-10-13T11:54:55;7.50;;;4.60;;
12802;SDS011;6465;42.700;23.278;2023-10-13T11:57:22;7.80;;;3.67;;
12802;SDS011;6465;42.700;23.278;2023-10-13T11:59:49;40.13;;;36.05;;
12802;SDS011;6465;42.700;23.278;2023-10-13T12:02:41;17.85;;;14.27;;
12802;SDS011;6465;42.700;23.278;2023-10-13T12:05:24;8.98;;;4.07;;
12802;SDS011;6465;42.700;23.278;2023-10-13T12:08:02;4.15;;;3.28;;
12802;SDS011;6465;42.700;23.278;2023-10-13T12:10:34;4.53;;;3.25;;
12802;SDS011;6465;42.700;23.278;2023-10-13T12:13:14;6.50;;;2.85;;
12802;SDS011;6465;42.700;23.278;2023-10-13T12:15:42;5.40;;;2.20;;
12802;SDS011;6465;42.700;23.278;2023-10-13T12:18:17;2.55;;;2.33;;
12802;SDS011;6465;42.700;23.278;2023-10-13T12:20:46;10.43;;;2.20;;
12802;SDS011;6465;42.700;23.278;2023-10-13T12:23:14;6.32;;;3.00;;
12802;SDS011;6465;42.700;23.278;2023-10-13T12:25:47;5.47;;;2.53;;
12802;SDS011;6465;42.700;23.278;2023-10-13T12:28:31;4.00;;;2.78;;
12802;SDS011;6465;42.700;23.278;2023-10-13T12:31:03;4.57;;;1.98;;
12802;SDS011;6465;42.700;23.278;2023-10-13T12:33:33;4.40;;;3.47;;
12802;SDS011;6465;42.700;23.278;2023-10-13T12:36:05;3.92;;;2.50;;
12802;SDS011;6465;42.700;23.278;2023-10-13T12:38:34;3.35;;;2.42;;
12802;SDS011;6465;42.700;23.278;2023-10-13T12:41:23;4.80;;;2.42;;
12802;SDS011;6465;42.700;23.278;2023-10-13T12:44:08;2.75;;;2.38;;
12802;SDS011;6465;42.700;23.278;2023-10-13T12:46:52;4.32;;;2.50;;
12802;SDS011;6465;42.700;23.278;2023-10-13T12:49:37;5.47;;;2.65;;
12802;SDS011;6465;42.700;23.278;2023-10-13T12:52:23;5.32;;;2.30;;
12802;SDS011;6465;42.700;23.278;2023-10-13T12:54:51;3.10;;;2.60;;
12802;SDS011;6465;42.700;23.278;2023-10-13T12:57:32;4.95;;;2.45;;
12802;SDS011;6465;42.700;23.278;2023-10-13T13:00:07;7.53;;;2.40;;
12802;SDS011;6465;42.700;23.278;2023-10-13T13:02:46;5.18;;;2.20;;
12802;SDS011;6465;42.700;23.278;2023-10-13T13:05:15;5.63;;;2.90;;
12802;SDS011;6465;42.700;23.278;2023-10-13T13:07:46;5.90;;;2.60;;
12802;SDS011;6465;42.700;23.278;2023-10-13T13:10:17;3.67;;;2.63;;
12802;SDS011;6465;42.700;23.278;2023-10-13T13:12:47;3.95;;;2.85;;
12802;SDS011;6465;42.700;23.278;2023-10-13T13:15:14;3.30;;;3.00;;
12802;SDS011;6465;42.700;23.278;2023-10-13T13:17:48;8.80;;;2.63;;
12802;SDS011;6465;42.700;23.278;2023-10-13T13:20:16;6.00;;;2.88;;
12802;SDS011;6465;42.700;23.278;2023-10-13T13:22:53;6.75;;;2.90;;
12802;SDS011;6465;42.700;23.278;2023-10-13T13:25:20;4.55;;;2.63;;
12802;SDS011;6465;42.700;23.278;2023-10-13T13:27:53;3.85;;;2.78;;
12802;SDS011;6465;42.700;23.278;2023-10-13T13:30:19;5.25;;;2.75;;
12802;SDS011;6465;42.700;23.278;2023-10-13T13:32:47;3.80;;;3.03;;
12802;SDS011;6465;42.700;23.278;2023-10-13T13:35:15;3.03;;;2.38;;
12802;SDS011;6465;42.700;23.278;2023-10-13T13:37:44;3.97;;;2.30;;
12802;SDS011;6465;42.700;23.278;2023-10-13T13:40:11;6.40;;;2.70;;
12802;SDS011;6465;42.700;23.278;2023-10-13T13:42:41;4.63;;;3.15;;
12802;SDS011;6465;42.700;23.278;2023-10-13T13:45:13;5.55;;;2.90;;
12802;SDS011;6465;42.700;23.278;2023-10-13T13:47:52;3.90;;;2.88;;
12802;SDS011;6465;42.700;23.278;2023-10-13T13:50:20;8.20;;;3.08;;
12802;SDS011;6465;42.700;23.278;2023-10-13T13:52:52;7.97;;;3.88;;
12802;SDS011;6465;42.700;23.278;2023-10-13T13:55:21;5.95;;;2.78;;
12802;SDS011;6465;42.700;23.278;2023-10-13T13:57:49;6.50;;;3.00;;
12802;SDS011;6465;42.700;23.278;2023-10-13T14:00:18;8.32;;;3.50;;
12802;SDS011;6465;42.700;23.278;2023-10-13T14:02:49;4.38;;;3.13;;
12802;SDS011;6465;42.700;23.278;2023-10-13T14:05:16;9.90;;;3.05;;
12802;SDS011;6465;42.700;23.278;2023-10-13T14:07:43;4.85;;;2.95;;
12802;SDS011;6465;42.700;23.278;2023-10-13T14:10:14;6.07;;;2.95;;
12802;SDS011;6465;42.700;23.278;2023-10-13T14:12:56;6.18;;;3.13;;
12802;SDS011;6465;42.700;23.278;2023-10-13T14:15:36;7.75;;;3.13;;
12802;SDS011;6465;42.700;23.278;2023-10-13T14:18:09;6.15;;;3.95;;
12802;SDS011;6465;42.700;23.278;2023-10-13T14:20:40;8.18;;;4.28;;
12802;SDS011;6465;42.700;23.278;2023-10-13T14:23:07;7.05;;;3.72;;
12802;SDS011;6465;42.700;23.278;2023-10-13T14:25:37;7.13;;;5.32;;
12802;SDS011;6465;42.700;23.278;2023-10-13T14:28:06;7.55;;;5.30;;
12802;SDS011;6465;42.700;23.278;2023-10-13T14:30:37;8.50;;;4.60;;
12802;SDS011;6465;42.700;23.278;2023-10-13T14:33:05;6.85;;;5.38;;
12802;SDS011;6465;42.700;23.278;2023-10-13T14:35:36;4.90;;;4.47;;
12802;SDS011;6465;42.700;23.278;2023-10-13T14:38:03;9.50;;;6.30;;
12802;SDS011;6465;42.700;23.278;2023-10-13T14:40:30;6.63;;;3.92;;
12802;SDS011;6465;42.700;23.278;2023-10-13T14:42:57;4.30;;;3.88;;
12802;SDS011;6465;42.700;23.278;2023-10-13T14:45:24;6.75;;;3.72;;
12802;SDS011;6465;42.700;23.278;2023-10-13T14:47:52;9.85;;;3.70;;
12802;SDS011;6465;42.700;23.278;2023-10-13T14:50:19;8.30;;;5.15;;
12802;SDS011;6465;42.700;23.278;2023-10-13T14:52:46;8.23;;;4.13;;
12802;SDS011;6465;42.700;23.278;2023-10-13T14:55:13;10.18;;;5.28;;
12802;SDS011;6465;42.700;23.278;2023-10-13T14:57:46;5.15;;;3.47;;
12802;SDS011;6465;42.700;23.278;2023-10-13T15:00:15;10.40;;;3.92;;
12802;SDS011;6465;42.700;23.278;2023-10-13T15:02:51;7.03;;;3.22;;
12802;SDS011;6465;42.700;23.278;2023-10-13T15:05:19;10.82;;;4.25;;
12802;SDS011;6465;42.700;23.278;2023-10-13T15:07:46;8.48;;;6.40;;
12802;SDS011;6465;42.700;23.278;2023-10-13T15:10:13;6.47;;;4.65;;